createdAt,value
2023-04-28T00:02:24.791Z,100921.10
2023-04-28T00:04:52.884Z,100921.29
2023-04-28T00:07:21.283Z,100917.92
2023-04-28T00:09:49.110Z,100918.46
2023-04-28T00:12:16.852Z,100916.24
2023-04-28T00:14:44.771Z,100917.44
2023-04-28T00:17:12.543Z,100916.15
2023-04-28T00:19:40.497Z,100915.71
2023-04-28T00:22:08.795Z,100917.80
2023-04-28T00:24:37.257Z,100916.21
2023-04-28T00:27:05.034Z,100919.14
2023-04-28T00:29:32.930Z,100917.08
2023-04-28T00:32:00.844Z,100920.11
2023-04-28T00:34:30.085Z,100917.65
2023-04-28T00:36:57.973Z,100917.80
2023-04-28T00:39:27.790Z,100916.56
2023-04-28T00:41:56.024Z,100917.82
2023-04-28T00:44:23.865Z,100921.80
2023-04-28T00:46:51.705Z,100921.19
2023-04-28T00:49:19.590Z,100924.25
2023-04-28T00:51:47.301Z,100921.48
2023-04-28T00:54:15.343Z,100922.57
2023-04-28T00:56:43.747Z,100929.02
2023-04-28T00:59:11.592Z,100930.08
2023-04-28T01:01:39.395Z,100928.75
2023-04-28T01:04:07.689Z,100925.27
2023-04-28T01:06:37.495Z,100923.96
2023-04-28T01:09:07.534Z,100925.46
2023-04-28T01:11:37.540Z,100927.56
2023-04-28T01:14:09.577Z,100928.52
2023-04-28T01:16:40.823Z,100927.52
2023-04-28T01:19:17.331Z,100926.26
2023-04-28T01:21:45.411Z,100926.70
2023-04-28T01:24:19.097Z,100929.34
2023-04-28T01:26:47.088Z,100926.32
2023-04-28T01:29:14.868Z,100925.05
2023-04-28T01:31:42.953Z,100926.27
2023-04-28T01:34:11.298Z,100930.35
2023-04-28T01:36:39.376Z,100933.64
2023-04-28T01:39:07.649Z,100932.67
2023-04-28T01:41:35.433Z,100930.30
2023-04-28T01:44:06.279Z,100932.63
2023-04-28T01:46:34.934Z,100930.06
2023-04-28T01:49:02.849Z,100933.20
2023-04-28T01:51:31.300Z,100932.82
2023-04-28T01:53:59.058Z,100932.17
2023-04-28T01:56:26.818Z,100933.46
2023-04-28T01:58:56.144Z,100930.91
2023-04-28T02:01:24.259Z,100931.14
2023-04-28T02:03:52.412Z,100932.11
2023-04-28T02:06:20.581Z,100927.50
2023-04-28T02:08:48.428Z,100932.20
2023-04-28T02:11:16.250Z,100937.36
2023-04-28T02:13:44.107Z,100936.02
2023-04-28T02:16:12.192Z,100934.95
2023-04-28T02:18:40.574Z,100938.23
2023-04-28T02:21:11.000Z,100935.14
2023-04-28T02:23:40.083Z,100932.80
2023-04-28T02:26:08.345Z,100938.30
2023-04-28T02:28:36.174Z,100939.80
2023-04-28T02:31:08.702Z,100941.89
2023-04-28T02:33:37.749Z,100937.26
2023-04-28T02:36:06.866Z,100935.77
2023-04-28T02:38:34.973Z,100937.17
2023-04-28T02:41:09.379Z,100940.15
2023-04-28T02:43:37.701Z,100934.36
2023-04-28T02:46:05.975Z,100932.84
2023-04-28T02:48:35.814Z,100936.50
2023-04-28T02:51:03.611Z,100935.20
2023-04-28T02:53:32.001Z,100933.58
2023-04-28T02:56:02.081Z,100935.36
2023-04-28T02:58:30.227Z,100932.38
2023-04-28T03:00:58.470Z,100935.55
2023-04-28T03:03:26.897Z,100936.14
2023-04-28T03:05:56.877Z,100937.67
2023-04-28T03:08:24.732Z,100936.36
2023-04-28T03:10:54.297Z,100938.89
2023-04-28T03:13:22.064Z,100938.33
2023-04-28T03:15:50.350Z,100942.46
2023-04-28T03:18:18.842Z,100940.16
2023-04-28T03:20:46.764Z,100945.86
2023-04-28T03:23:14.584Z,100948.45
2023-04-28T03:25:42.492Z,100948.16
2023-04-28T03:28:10.807Z,100957.59
2023-04-28T03:30:38.648Z,100956.95
2023-04-28T03:33:06.993Z,100953.06
2023-04-28T03:35:34.817Z,100961.56
2023-04-28T03:38:03.044Z,100958.49
2023-04-28T03:40:31.317Z,100964.31
2023-04-28T03:43:19.108Z,100963.52
2023-04-28T03:46:09.921Z,100956.69
2023-04-28T03:48:37.953Z,100958.31
2023-04-28T03:51:06.040Z,100958.02
2023-04-28T03:53:33.913Z,100955.54
2023-04-28T03:56:01.841Z,100955.98
2023-04-28T03:58:29.709Z,100959.55
2023-04-28T04:00:57.544Z,100961.65
2023-04-28T04:03:27.165Z,100963.89
2023-04-28T04:05:57.059Z,100960.48
2023-04-28T04:08:25.498Z,100959.75
2023-04-28T04:10:54.971Z,100965.29
2023-04-28T04:13:23.142Z,100967.66
2023-04-28T04:15:52.754Z,100968.90
2023-04-28T04:18:21.418Z,100970.66
2023-04-28T04:21:13.009Z,100971.50
2023-04-28T04:23:41.247Z,100970.52
2023-04-28T04:26:08.953Z,100975.15
2023-04-28T04:28:37.152Z,100977.59
2023-04-28T04:31:06.415Z,100979.48
2023-04-28T04:33:34.761Z,100977.46
2023-04-28T04:36:03.304Z,100979.96
2023-04-28T04:38:31.550Z,100981.30
2023-04-28T04:41:02.148Z,100979.92
2023-04-28T04:43:30.167Z,100977.65
2023-04-28T04:45:57.974Z,100980.48
2023-04-28T04:48:25.964Z,100976.26
2023-04-28T04:50:53.838Z,100978.23
2023-04-28T04:53:21.626Z,100977.88
2023-04-28T04:55:49.579Z,100981.09
2023-04-28T04:58:17.974Z,100977.67
2023-04-28T05:01:04.851Z,100976.38
2023-04-28T05:03:33.279Z,100982.30
2023-04-28T05:06:02.950Z,100981.62
2023-04-28T05:08:36.296Z,100975.72
2023-04-28T05:11:05.058Z,100974.44
2023-04-28T05:13:32.800Z,100980.36
2023-04-28T05:16:02.639Z,100982.48
2023-04-28T05:18:56.481Z,100985.11
2023-04-28T05:21:24.302Z,100984.13
2023-04-28T05:23:52.514Z,100985.23
2023-04-28T05:26:20.818Z,100982.60
2023-04-28T05:28:48.728Z,100980.96
2023-04-28T05:31:16.574Z,100983.09
2023-04-28T05:33:44.510Z,100984.66
2023-04-28T05:36:13.103Z,100985.63
2023-04-28T05:38:41.063Z,100990.16
2023-04-28T05:41:08.928Z,100984.38
2023-04-28T05:43:37.165Z,100985.00
2023-04-28T05:46:09.752Z,100987.19
2023-04-28T05:48:43.997Z,100987.86
2023-04-28T05:51:12.000Z,100988.39
2023-04-28T05:53:40.050Z,100993.95
2023-04-28T05:56:08.388Z,100989.73
2023-04-28T05:58:36.249Z,100992.83
2023-04-28T06:01:05.114Z,100993.56
2023-04-28T06:03:33.983Z,100988.98
2023-04-28T06:06:03.073Z,100988.50
2023-04-28T06:08:31.872Z,100990.71
2023-04-28T06:10:59.643Z,100986.36
2023-04-28T06:13:27.837Z,100986.26
2023-04-28T06:15:56.007Z,100988.88
2023-04-28T06:18:24.444Z,100988.06
2023-04-28T06:20:52.244Z,100987.83
2023-04-28T06:23:21.192Z,100984.46
2023-04-28T06:25:50.201Z,100986.22
2023-04-28T06:28:18.085Z,100986.24
2023-04-28T06:30:46.408Z,100987.33
2023-04-28T06:33:14.160Z,100986.15
2023-04-28T06:35:42.135Z,100986.08
2023-04-28T06:38:10.197Z,100987.37
2023-04-28T06:40:38.258Z,100989.38
2023-04-28T06:43:07.369Z,100989.17
2023-04-28T06:46:01.632Z,100988.02
2023-04-28T06:48:29.460Z,100987.18
2023-04-28T06:50:57.214Z,100988.98
2023-04-28T06:53:24.947Z,100987.98
2023-04-28T06:55:53.022Z,100986.09
2023-04-28T06:58:21.895Z,100989.27
2023-04-28T07:00:49.689Z,100989.19
2023-04-28T07:03:17.771Z,100985.61
2023-04-28T07:05:46.297Z,100984.58
2023-04-28T07:08:14.147Z,100981.61
2023-04-28T07:10:42.289Z,100985.39
2023-04-28T07:13:10.618Z,100984.56
2023-04-28T07:15:38.778Z,100985.26
2023-04-28T07:18:07.530Z,100982.61
2023-04-28T07:20:35.516Z,100981.15
2023-04-28T07:23:03.473Z,100981.99
2023-04-28T07:25:32.121Z,100981.27
2023-04-28T07:27:59.990Z,100974.73
2023-04-28T07:30:28.429Z,100967.27
2023-04-28T07:32:56.391Z,100967.13
2023-04-28T07:49:04.786Z,100957.05
2023-04-28T07:51:32.598Z,100955.71
2023-04-28T07:54:00.584Z,100949.38
2023-04-28T07:56:28.304Z,100945.85
2023-04-28T07:58:57.131Z,100946.25
2023-04-28T08:01:25.216Z,100943.55
2023-04-28T08:03:53.171Z,100947.39
2023-04-28T08:06:21.208Z,100944.50
2023-04-28T08:08:49.289Z,100940.66
2023-04-28T08:11:17.032Z,100941.27
2023-04-28T08:13:44.785Z,100938.16
2023-04-28T08:16:12.795Z,100937.80
2023-04-28T08:18:40.942Z,100937.60
2023-04-28T08:21:09.711Z,100938.91
2023-04-28T08:23:37.546Z,100932.90
2023-04-28T08:26:05.849Z,100932.52
2023-04-28T08:28:34.097Z,100925.44
2023-04-28T08:31:01.958Z,100925.73
2023-04-28T08:33:29.712Z,100921.39
2023-04-28T08:35:57.745Z,100920.96
2023-04-28T08:38:26.619Z,100911.33
2023-04-28T08:40:54.411Z,100916.52
2023-04-28T08:43:22.495Z,100910.66
2023-04-28T08:45:50.308Z,100910.11
2023-04-28T08:48:23.326Z,100913.70
2023-04-28T08:50:53.487Z,100913.90
2023-04-28T08:53:26.911Z,100913.17
2023-04-28T08:55:56.977Z,100914.25
2023-04-28T08:58:26.491Z,100912.50
2023-04-28T09:00:54.721Z,100910.99
2023-04-28T09:03:22.728Z,100909.30
2023-04-28T09:05:50.925Z,100908.11
2023-04-28T09:08:19.164Z,100906.35
2023-04-28T09:10:47.086Z,100903.70
2023-04-28T09:13:33.468Z,100901.88
2023-04-28T09:16:03.216Z,100897.88
2023-04-28T09:18:34.608Z,100897.05
2023-04-28T09:21:08.359Z,100895.73
2023-04-28T09:23:49.355Z,100898.27
2023-04-28T09:26:17.177Z,100899.56
2023-04-28T09:28:44.866Z,100889.80
2023-04-28T09:31:25.174Z,100882.45
2023-04-28T09:34:00.309Z,100879.55
2023-04-28T09:36:30.996Z,100882.20
2023-04-28T09:39:00.313Z,100881.05
2023-04-28T09:41:42.794Z,100880.59
2023-04-28T09:44:11.876Z,100881.07
2023-04-28T09:46:40.347Z,100880.58
2023-04-28T09:49:08.809Z,100882.83
2023-04-28T09:51:36.893Z,100882.46
2023-04-28T09:54:05.074Z,100876.73
2023-04-28T09:56:35.004Z,100876.06
2023-04-28T09:59:02.924Z,100870.16
2023-04-28T10:01:39.020Z,100865.94
2023-04-28T10:04:09.783Z,100863.91
2023-04-28T10:06:38.093Z,100858.39
2023-04-28T10:09:06.807Z,100856.77
2023-04-28T10:11:35.337Z,100851.48
2023-04-28T10:14:03.287Z,100851.55
2023-04-28T10:16:33.280Z,100849.14
2023-04-28T10:19:03.353Z,100842.29
2023-04-28T10:21:35.764Z,100842.86
2023-04-28T10:24:15.076Z,100838.40
2023-04-28T10:27:02.081Z,100836.04
2023-04-28T10:29:32.527Z,100835.14
2023-04-28T10:32:24.111Z,100831.52
2023-04-28T10:34:52.595Z,100831.45
2023-04-28T10:37:20.965Z,100830.77
2023-04-28T10:40:34.649Z,100829.11
2023-04-28T10:43:03.468Z,100825.56
2023-04-28T10:45:56.258Z,100819.06
2023-04-28T10:48:33.879Z,100823.88
2023-04-28T10:51:07.924Z,100813.23
2023-04-28T10:53:54.269Z,100813.45
2023-04-28T10:56:27.155Z,100809.11
2023-04-28T10:58:56.080Z,100810.05
2023-04-28T11:01:29.753Z,100807.78
2023-04-28T11:04:03.637Z,100803.50
2023-04-28T11:06:35.940Z,100803.60
2023-04-28T11:09:32.932Z,100803.13
2023-04-28T11:12:00.835Z,100798.08
2023-04-28T11:14:29.997Z,100798.23
2023-04-28T11:17:13.450Z,100791.38
2023-04-28T11:19:43.862Z,100783.33
2023-04-28T11:22:20.617Z,100781.17
2023-04-28T11:25:01.919Z,100776.11
2023-04-28T11:27:31.421Z,100778.27
2023-04-28T11:30:00.218Z,100767.86
2023-04-28T11:32:30.791Z,100768.83
2023-04-28T11:34:58.646Z,100768.35
2023-04-28T11:37:27.228Z,100769.25
2023-04-28T11:39:55.146Z,100768.52
2023-04-28T11:42:26.248Z,100766.06
2023-04-28T11:44:55.035Z,100769.61
2023-04-28T11:47:31.438Z,100766.50
2023-04-28T11:49:59.395Z,100766.11
2023-04-28T11:52:27.643Z,100768.91
2023-04-28T11:55:03.036Z,100768.73
2023-04-28T11:57:30.871Z,100765.51
2023-04-28T12:00:22.131Z,100766.88
2023-04-28T12:02:50.882Z,100763.45
2023-04-28T12:05:22.169Z,100758.61
2023-04-28T12:07:50.384Z,100755.23
2023-04-28T12:10:19.799Z,100750.33
2023-04-28T12:12:52.826Z,100750.36
2023-04-28T12:15:22.693Z,100754.10
2023-04-28T12:17:51.609Z,100749.67
2023-04-28T12:20:39.357Z,100744.24
2023-04-28T12:23:08.534Z,100747.89
2023-04-28T12:25:46.257Z,100740.84
2023-04-28T12:28:14.064Z,100732.27
2023-04-28T12:30:42.804Z,100728.31
2023-04-28T12:33:24.682Z,100724.11
2023-04-28T12:35:57.891Z,100722.33
2023-04-28T12:38:27.224Z,100725.66
2023-04-28T12:40:55.190Z,100721.35
2023-04-28T12:43:24.184Z,100723.70
2023-04-28T12:45:56.567Z,100718.15
2023-04-28T12:48:25.183Z,100712.77
2023-04-28T12:50:53.092Z,100706.38
2023-04-28T12:53:20.947Z,100705.98
2023-04-28T12:55:48.903Z,100709.59
2023-04-28T12:58:17.935Z,100707.50
2023-04-28T13:00:45.737Z,100701.66
2023-04-28T13:03:13.613Z,100699.18
2023-04-28T13:05:41.481Z,100703.48
2023-04-28T13:08:09.597Z,100694.67
2023-04-28T13:10:37.396Z,100688.77
2023-04-28T13:13:05.608Z,100691.39
2023-04-28T13:15:33.417Z,100684.64
2023-04-28T13:18:01.188Z,100680.41
2023-04-28T13:20:29.019Z,100679.55
2023-04-28T13:22:56.737Z,100670.39
2023-04-28T13:25:25.192Z,100669.91
2023-04-28T13:27:52.976Z,100664.89
2023-04-28T13:30:20.894Z,100665.77
2023-04-28T13:32:49.444Z,100662.88
2023-04-28T13:35:17.848Z,100662.98
2023-04-28T13:37:46.222Z,100660.69
2023-04-28T13:40:13.988Z,100655.98
2023-04-28T13:42:41.759Z,100656.66
2023-04-28T13:45:09.971Z,100656.06
2023-04-28T13:47:38.140Z,100651.86
2023-04-28T13:50:06.651Z,100647.95
2023-04-28T13:52:34.474Z,100642.61
2023-04-28T13:55:02.341Z,100643.46
2023-04-28T13:57:30.520Z,100643.17
2023-04-28T13:59:58.328Z,100643.89
2023-04-28T14:02:27.456Z,100636.27
2023-04-28T14:04:55.951Z,100636.61
2023-04-28T14:07:23.823Z,100628.47
2023-04-28T14:09:51.692Z,100625.70
2023-04-28T14:12:19.406Z,100619.71
2023-04-28T14:14:49.576Z,100617.60
2023-04-28T14:17:17.640Z,100617.93
2023-04-28T14:19:45.905Z,100615.22
2023-04-28T14:22:13.625Z,100615.94
2023-04-28T14:24:43.084Z,100611.01
2023-04-28T14:27:11.118Z,100606.45
2023-04-28T14:29:39.094Z,100607.51
2023-04-28T14:32:07.255Z,100608.65
2023-04-28T14:34:34.978Z,100609.20
2023-04-28T14:37:02.795Z,100602.14
2023-04-28T14:39:30.630Z,100599.11
2023-04-28T14:41:58.375Z,100595.39
2023-04-28T14:44:26.092Z,100590.97
2023-04-28T14:46:54.357Z,100590.64
2023-04-28T14:49:23.061Z,100591.71
2023-04-28T14:51:50.893Z,100585.16
2023-04-28T14:54:18.923Z,100584.11
2023-04-28T14:56:46.607Z,100578.93
2023-04-28T14:59:14.395Z,100577.13
2023-04-28T15:01:42.539Z,100575.32
2023-04-28T15:04:10.410Z,100572.67
2023-04-28T15:06:38.269Z,100569.23
2023-04-28T15:09:06.239Z,100567.07
2023-04-28T15:11:34.187Z,100568.23
2023-04-28T15:14:01.976Z,100567.02
2023-04-28T15:16:29.804Z,100564.15
2023-04-28T15:18:58.117Z,100563.92
2023-04-28T15:21:26.314Z,100563.09
2023-04-28T15:23:54.498Z,100562.14
2023-04-28T15:26:23.625Z,100560.02
2023-04-28T15:28:51.415Z,100560.87
2023-04-28T15:31:19.507Z,100550.82
2023-04-28T15:33:47.718Z,100548.38
2023-04-28T15:36:15.606Z,100543.16
2023-04-28T15:38:45.450Z,100546.89
2023-04-28T15:41:15.082Z,100545.30
2023-04-28T15:43:44.485Z,100543.10
2023-04-28T15:46:14.931Z,100541.73
2023-04-28T15:48:43.798Z,100541.39
2023-04-28T15:51:11.739Z,100535.48
2023-04-28T15:53:40.024Z,100539.90
2023-04-28T15:56:08.290Z,100543.40
2023-04-28T15:58:36.493Z,100539.42
2023-04-28T16:01:05.137Z,100540.84
2023-04-28T16:03:33.035Z,100538.37
2023-04-28T16:06:01.210Z,100539.55
2023-04-28T16:08:29.376Z,100535.20
2023-04-28T16:10:57.371Z,100531.89
2023-04-28T16:13:25.136Z,100528.98
2023-04-28T16:15:53.227Z,100529.10
2023-04-28T16:18:21.149Z,100526.52
2023-04-28T16:20:49.167Z,100524.29
2023-04-28T16:23:16.922Z,100525.38
2023-04-28T16:25:44.861Z,100522.90
2023-04-28T16:28:12.617Z,100518.98
2023-04-28T16:30:41.144Z,100519.14
2023-04-28T16:33:09.095Z,100521.58
2023-04-28T16:35:36.901Z,100520.91
2023-04-28T16:38:05.233Z,100520.42
2023-04-28T16:40:32.998Z,100514.33
2023-04-28T16:43:00.844Z,100512.31
2023-04-28T16:45:29.265Z,100509.67
2023-04-28T16:47:57.388Z,100510.07
2023-04-28T16:50:25.138Z,100514.80
2023-04-28T16:52:52.960Z,100515.02
2023-04-28T16:55:20.792Z,100515.71
2023-04-28T16:57:48.863Z,100512.35
2023-04-28T17:00:17.370Z,100507.39
2023-04-28T17:02:45.236Z,100511.20
2023-04-28T17:05:13.301Z,100505.75
2023-04-28T17:07:41.313Z,100502.17
2023-04-28T17:10:09.659Z,100502.41
2023-04-28T17:12:37.588Z,100500.58
2023-04-28T17:15:09.505Z,100501.42
2023-04-28T17:17:37.846Z,100505.08
2023-04-28T17:20:06.360Z,100504.75
2023-04-28T17:22:35.369Z,100504.30
2023-04-28T17:25:03.802Z,100506.91
2023-04-28T17:27:31.844Z,100507.20
2023-04-28T17:29:59.713Z,100501.78
2023-04-28T17:32:30.748Z,100496.48
2023-04-28T17:34:58.933Z,100493.55
2023-04-28T17:37:26.719Z,100498.88
2023-04-28T17:39:54.457Z,100492.18
2023-04-28T17:42:22.279Z,100490.36
2023-04-28T17:44:50.923Z,100492.60
2023-04-28T17:47:19.438Z,100490.80
2023-04-28T17:49:47.149Z,100492.89
2023-04-28T17:52:15.526Z,100489.86
2023-04-28T17:54:43.885Z,100491.35
2023-04-28T17:57:12.436Z,100492.10
2023-04-28T17:59:40.701Z,100492.18
2023-04-28T18:02:11.920Z,100493.39
2023-04-28T18:04:40.176Z,100492.48
2023-04-28T18:07:08.268Z,100492.95
2023-04-28T18:09:36.061Z,100492.73
2023-04-28T18:12:07.137Z,100492.88
2023-04-28T18:14:35.049Z,100490.17
2023-04-28T18:17:03.011Z,100488.67
2023-04-28T18:19:31.065Z,100490.77
2023-04-28T18:21:59.046Z,100489.60
2023-04-28T18:24:26.808Z,100489.92
2023-04-28T18:26:54.712Z,100494.41
2023-04-28T18:29:22.604Z,100500.61
2023-04-28T18:31:51.487Z,100500.75
2023-04-28T18:34:19.936Z,100498.20
2023-04-28T18:36:47.734Z,100496.38
2023-04-28T18:39:15.654Z,100496.91
2023-04-28T18:41:44.220Z,100497.73
2023-04-28T18:44:12.005Z,100493.98
2023-04-28T18:46:40.193Z,100495.77
2023-04-28T18:49:07.972Z,100500.03
2023-04-28T18:51:36.040Z,100496.41
2023-04-28T18:54:04.843Z,100499.51
2023-04-28T18:56:32.656Z,100503.92
2023-04-28T18:59:00.621Z,100500.00
2023-04-28T19:01:28.579Z,100498.83
2023-04-28T19:03:56.789Z,100498.36
2023-04-28T19:06:24.950Z,100497.98
2023-04-28T19:08:53.262Z,100498.39
2023-04-28T19:11:21.268Z,100496.98
2023-04-28T19:13:50.279Z,100503.64
2023-04-28T19:16:18.654Z,100503.11
2023-04-28T19:18:46.503Z,100499.63
2023-04-28T19:21:14.410Z,100496.38
2023-04-28T19:23:42.324Z,100496.80
2023-04-28T19:26:10.454Z,100491.31
2023-04-28T19:28:38.294Z,100487.54
2023-04-28T19:31:06.120Z,100492.20
2023-04-28T19:33:33.883Z,100491.79
2023-04-28T19:36:01.682Z,100494.67
2023-04-28T19:38:29.513Z,100490.36
2023-04-28T19:41:01.162Z,100489.95
2023-04-28T19:43:29.883Z,100494.80
2023-04-28T19:45:57.983Z,100490.98
2023-04-28T19:48:28.780Z,100489.98
2023-04-28T19:50:57.322Z,100487.09
2023-04-28T19:53:25.116Z,100483.99
2023-04-28T19:55:53.143Z,100489.02
2023-04-28T19:58:22.295Z,100489.19
2023-04-28T20:00:50.071Z,100486.59
2023-04-28T20:03:18.087Z,100489.98
2023-04-28T20:05:46.017Z,100489.30
2023-04-28T20:08:13.969Z,100489.54
2023-04-28T20:10:42.470Z,100487.92
2023-04-28T20:13:10.161Z,100487.69
2023-04-28T20:15:38.050Z,100488.48
2023-04-28T20:18:06.211Z,100491.76
2023-04-28T20:20:34.317Z,100485.48
2023-04-28T20:23:02.154Z,100494.27
2023-04-28T20:25:30.036Z,100494.55
2023-04-28T20:27:58.197Z,100489.34
2023-04-28T20:30:27.753Z,100489.51
2023-04-28T20:32:55.522Z,100490.02
2023-04-28T20:35:23.341Z,100495.45
2023-04-28T20:37:51.121Z,100491.69
2023-04-28T20:40:18.908Z,100492.77
2023-04-28T20:42:46.621Z,100495.15
2023-04-28T20:45:14.394Z,100490.83
2023-04-28T20:47:42.487Z,100488.80
2023-04-28T20:50:11.589Z,100490.41
2023-04-28T20:52:39.452Z,100487.26
2023-04-28T20:55:08.525Z,100486.00
2023-04-28T20:57:36.224Z,100486.36
2023-04-28T21:00:05.279Z,100483.98
2023-04-28T21:02:33.340Z,100483.04
2023-04-28T21:05:01.743Z,100482.79
2023-04-28T21:07:29.545Z,100474.46
2023-04-28T21:09:58.091Z,100475.61
2023-04-28T21:12:25.948Z,100476.37
2023-04-28T21:14:53.770Z,100474.05
2023-04-28T21:17:21.471Z,100472.89
2023-04-28T21:19:49.475Z,100474.17
2023-04-28T21:22:17.570Z,100472.77
2023-04-28T21:24:45.290Z,100470.30
2023-04-28T21:27:13.054Z,100469.48
2023-04-28T21:29:40.897Z,100464.31
2023-04-28T21:32:09.309Z,100465.80
2023-04-28T21:34:37.355Z,100467.31
2023-04-28T21:37:05.714Z,100467.67
2023-04-28T21:39:33.939Z,100467.75
2023-04-28T21:42:01.830Z,100471.70
2023-04-28T21:44:29.944Z,100469.35
2023-04-28T21:46:57.841Z,100466.14
2023-04-28T21:49:25.988Z,100467.55
2023-04-28T21:51:53.776Z,100469.69
2023-04-28T21:54:21.652Z,100470.46
2023-04-28T21:56:49.664Z,100469.39
2023-04-28T21:59:18.072Z,100468.71
2023-04-28T22:01:46.506Z,100470.80
2023-04-28T22:04:15.120Z,100470.09
2023-04-28T22:06:44.993Z,100467.16
2023-04-28T22:09:13.660Z,100464.27
2023-04-28T22:11:41.575Z,100466.19
2023-04-28T22:14:11.990Z,100467.46
2023-04-28T22:16:43.129Z,100464.19
2023-04-28T22:19:11.467Z,100464.59
2023-04-28T22:21:39.778Z,100466.16
2023-04-28T22:24:08.269Z,100466.13
2023-04-28T22:26:36.598Z,100467.10
2023-04-28T22:29:04.336Z,100464.27
2023-04-28T22:31:32.363Z,100463.52
2023-04-28T22:34:00.080Z,100458.52
2023-04-28T22:36:28.207Z,100454.51
2023-04-28T22:38:56.160Z,100451.17
2023-04-28T22:41:24.589Z,100453.86
2023-04-28T22:43:53.441Z,100449.98
2023-04-28T22:46:21.182Z,100454.20
2023-04-28T22:48:49.892Z,100451.91
2023-04-28T22:51:17.642Z,100452.55
2023-04-28T22:53:46.738Z,100451.64
2023-04-28T22:56:16.131Z,100449.73
2023-04-28T22:58:44.785Z,100450.64
2023-04-28T23:01:12.706Z,100449.25
2023-04-28T23:03:41.663Z,100445.16
2023-04-28T23:06:09.669Z,100441.44
2023-04-28T23:08:37.504Z,100444.38
2023-04-28T23:11:06.803Z,100440.23
2023-04-28T23:13:34.910Z,100441.58
2023-04-28T23:16:02.707Z,100439.13
2023-04-28T23:18:32.761Z,100434.55
2023-04-28T23:21:00.642Z,100435.20
2023-04-28T23:23:28.387Z,100435.76
2023-04-28T23:25:56.835Z,100430.48
2023-04-28T23:28:24.727Z,100427.53
2023-04-28T23:30:52.493Z,100424.05
2023-04-28T23:33:20.322Z,100422.67
2023-04-28T23:35:48.259Z,100422.92
2023-04-28T23:38:16.866Z,100418.78
2023-04-28T23:40:44.634Z,100414.20
2023-04-28T23:43:14.678Z,100414.35
2023-04-28T23:45:42.790Z,100409.13
2023-04-28T23:48:11.147Z,100408.98
2023-04-28T23:50:38.934Z,100403.82
2023-04-28T23:53:06.758Z,100403.02
2023-04-28T23:55:34.479Z,100402.81
2023-04-28T23:58:02.180Z,100397.94
